createdAt,value
2023-05-24T00:01:56.740Z,38.75
2023-05-24T00:04:25.084Z,38.84
2023-05-24T00:06:54.843Z,38.68
2023-05-24T00:09:21.738Z,38.84
2023-05-24T00:11:48.362Z,39.07
2023-05-24T00:14:15.160Z,38.42
2023-05-24T00:16:41.925Z,38.88
2023-05-24T00:19:11.051Z,38.01
2023-05-24T00:21:37.842Z,38.36
2023-05-24T00:24:04.621Z,38.01
2023-05-24T00:26:31.178Z,38.54
2023-05-24T00:28:58.101Z,38.58
2023-05-24T00:31:24.796Z,39.10
2023-05-24T00:33:51.380Z,39.19
2023-05-24T00:36:18.664Z,39.23
2023-05-24T00:38:47.553Z,39.26
2023-05-24T00:41:16.418Z,39.80
2023-05-24T00:43:46.091Z,39.56
2023-05-24T00:46:22.909Z,39.93
2023-05-24T00:48:50.860Z,38.97
2023-05-24T00:51:18.050Z,40.07
2023-05-24T00:53:47.774Z,40.25
2023-05-24T00:56:16.009Z,40.10
2023-05-24T00:58:43.370Z,39.98
2023-05-24T01:01:10.348Z,40.26
2023-05-24T01:03:37.203Z,39.82
2023-05-24T01:06:06.274Z,40.00
2023-05-24T01:08:39.167Z,40.00
2023-05-24T01:11:24.589Z,39.48
2023-05-24T01:14:21.186Z,40.25
2023-05-24T01:16:58.901Z,39.99
2023-05-24T01:19:48.692Z,40.30
2023-05-24T01:22:53.332Z,40.14
2023-05-24T01:25:38.946Z,40.68
2023-05-24T01:28:08.649Z,41.17
2023-05-24T01:30:36.644Z,40.74
2023-05-24T01:33:03.878Z,41.36
2023-05-24T01:35:30.505Z,41.16
2023-05-24T01:37:57.085Z,40.97
2023-05-24T01:40:23.931Z,41.52
2023-05-24T01:42:57.601Z,41.22
2023-05-24T01:46:01.880Z,41.65
2023-05-24T01:48:36.036Z,41.75
2023-05-24T01:51:07.667Z,41.80
2023-05-24T01:53:41.170Z,41.97
2023-05-24T01:56:09.824Z,41.70
2023-05-24T01:58:40.813Z,41.73
2023-05-24T02:01:09.011Z,41.93
2023-05-24T02:03:38.170Z,41.38
2023-05-24T02:06:05.436Z,41.67
2023-05-24T02:08:32.078Z,41.63
2023-05-24T02:10:58.740Z,41.22
2023-05-24T02:13:25.341Z,42.82
2023-05-24T02:15:53.667Z,42.33
2023-05-24T02:18:20.282Z,42.52
2023-05-24T02:20:47.096Z,42.26
2023-05-24T02:23:14.486Z,42.37
2023-05-24T02:25:41.108Z,42.91
2023-05-24T02:28:07.655Z,43.31
2023-05-24T02:30:34.328Z,43.30
2023-05-24T02:33:01.089Z,42.94
2023-05-24T02:35:28.009Z,43.68
2023-05-24T02:37:54.587Z,43.49
2023-05-24T02:40:21.200Z,43.16
2023-05-24T02:42:47.795Z,42.66
2023-05-24T02:45:14.366Z,42.74
2023-05-24T02:47:41.511Z,42.87
2023-05-24T02:50:08.659Z,43.10
2023-05-24T02:52:36.233Z,43.38
2023-05-24T02:55:03.454Z,42.98
2023-05-24T02:57:34.012Z,42.90
2023-05-24T03:00:00.700Z,42.77
2023-05-24T03:02:30.225Z,42.56
2023-05-24T03:04:56.965Z,42.92
2023-05-24T03:07:23.589Z,42.70
2023-05-24T03:09:50.212Z,42.17
2023-05-24T03:12:16.767Z,42.55
2023-05-24T03:14:43.437Z,42.66
2023-05-24T03:17:11.036Z,42.77
2023-05-24T03:19:37.652Z,42.52
2023-05-24T03:22:04.269Z,42.87
2023-05-24T03:24:31.689Z,43.30
2023-05-24T03:26:58.253Z,43.11
2023-05-24T03:29:25.004Z,42.93
2023-05-24T03:31:53.429Z,42.41
2023-05-24T03:34:20.157Z,41.63
2023-05-24T03:36:46.791Z,42.37
2023-05-24T03:39:13.919Z,42.67
2023-05-24T03:41:54.486Z,42.49
2023-05-24T03:44:21.328Z,42.58
2023-05-24T03:46:48.154Z,42.78
2023-05-24T03:49:14.794Z,42.17
2023-05-24T03:51:41.422Z,42.66
2023-05-24T03:54:07.960Z,41.96
2023-05-24T03:56:34.678Z,42.62
2023-05-24T03:59:03.904Z,42.37
2023-05-24T04:01:33.925Z,41.85
2023-05-24T04:04:02.432Z,42.42
2023-05-24T04:06:30.043Z,42.15
2023-05-24T04:08:59.608Z,42.18
2023-05-24T04:11:29.208Z,42.74
2023-05-24T04:13:57.498Z,42.79
2023-05-24T04:16:24.501Z,43.31
2023-05-24T04:18:51.327Z,43.29
2023-05-24T04:21:18.028Z,43.44
2023-05-24T04:23:44.872Z,43.27
2023-05-24T04:26:12.201Z,43.78
2023-05-24T04:28:38.805Z,43.56
2023-05-24T04:31:09.885Z,43.61
2023-05-24T04:33:37.062Z,43.46
2023-05-24T04:36:03.795Z,44.21
2023-05-24T04:38:32.196Z,44.07
2023-05-24T04:40:59.421Z,44.04
2023-05-24T04:43:26.737Z,44.69
2023-05-24T04:45:57.171Z,44.96
2023-05-24T04:48:24.700Z,44.79
2023-05-24T04:50:55.387Z,44.77
2023-05-24T04:53:23.077Z,44.42
2023-05-24T04:55:50.651Z,44.53
2023-05-24T04:58:17.456Z,44.63
2023-05-24T05:00:44.972Z,44.86
2023-05-24T05:03:11.851Z,45.05
2023-05-24T05:05:38.639Z,45.07
2023-05-24T05:08:05.227Z,45.01
2023-05-24T05:10:31.883Z,45.03
2023-05-24T05:12:58.470Z,44.96
2023-05-24T05:15:25.052Z,44.45
2023-05-24T05:17:51.660Z,45.09
2023-05-24T05:20:18.597Z,45.00
2023-05-24T05:22:49.124Z,45.32
2023-05-24T05:25:15.826Z,44.99
2023-05-24T05:27:42.511Z,45.06
2023-05-24T05:30:09.780Z,45.13
2023-05-24T05:32:36.593Z,44.99
2023-05-24T05:35:04.100Z,45.83
2023-05-24T05:37:31.361Z,45.67
2023-05-24T05:39:58.060Z,45.60
2023-05-24T05:42:24.798Z,45.90
2023-05-24T05:44:52.536Z,46.40
2023-05-24T05:47:19.198Z,46.83
2023-05-24T05:49:46.023Z,46.04
2023-05-24T05:52:12.797Z,46.28
2023-05-24T05:54:39.568Z,45.83
2023-05-24T05:57:08.067Z,46.12
2023-05-24T05:59:36.085Z,46.44
2023-05-24T06:02:07.037Z,46.68
2023-05-24T06:04:34.430Z,47.04
2023-05-24T06:07:01.087Z,46.69
2023-05-24T06:09:27.648Z,46.30
2023-05-24T06:11:54.310Z,46.85
2023-05-24T06:14:22.165Z,47.41
2023-05-24T06:16:48.816Z,47.00
2023-05-24T06:19:16.454Z,47.13
2023-05-24T06:21:47.628Z,47.73
2023-05-24T06:24:15.188Z,47.43
2023-05-24T06:26:43.103Z,47.96
2023-05-24T06:29:09.826Z,47.94
2023-05-24T06:31:36.524Z,48.15
2023-05-24T06:34:04.658Z,47.47
2023-05-24T06:36:42.624Z,47.58
2023-05-24T06:39:10.749Z,47.51
2023-05-24T06:41:37.742Z,47.70
2023-05-24T06:44:04.657Z,47.69
2023-05-24T06:46:31.415Z,47.98
2023-05-24T06:48:58.236Z,47.81
2023-05-24T06:51:24.871Z,47.46
2023-05-24T06:53:51.964Z,47.36
2023-05-24T06:56:18.514Z,47.29
2023-05-24T06:58:45.566Z,46.84
2023-05-24T07:01:12.890Z,47.36
2023-05-24T07:03:39.523Z,47.18
2023-05-24T07:06:06.589Z,47.36
2023-05-24T07:08:33.202Z,46.96
2023-05-24T07:11:00.935Z,47.03
2023-05-24T07:13:27.833Z,47.75
2023-05-24T07:15:54.376Z,47.39
2023-05-24T07:18:21.096Z,47.24
2023-05-24T07:20:48.046Z,46.97
2023-05-24T07:23:14.817Z,47.27
2023-05-24T07:25:41.550Z,46.01
2023-05-24T07:28:08.432Z,46.28
2023-05-24T07:30:35.538Z,46.32
2023-05-24T07:33:03.019Z,46.55
2023-05-24T07:35:31.029Z,46.20
2023-05-24T07:37:57.635Z,45.94
2023-05-24T07:40:25.653Z,45.83
2023-05-24T07:42:52.391Z,45.32
2023-05-24T07:45:19.252Z,45.26
2023-05-24T07:47:46.040Z,45.83
2023-05-24T07:50:12.771Z,45.71
2023-05-24T07:52:39.497Z,45.12
2023-05-24T07:55:06.608Z,44.90
2023-05-24T07:57:33.636Z,45.21
2023-05-24T08:00:06.982Z,45.24
2023-05-24T08:02:38.349Z,44.63
2023-05-24T08:05:05.630Z,45.20
2023-05-24T08:07:32.309Z,44.93
2023-05-24T08:09:58.994Z,45.10
2023-05-24T08:12:26.210Z,45.01
2023-05-24T08:14:53.107Z,44.67
2023-05-24T08:17:19.786Z,45.33
2023-05-24T08:19:46.387Z,45.81
2023-05-24T08:22:13.033Z,45.41
2023-05-24T08:24:39.575Z,44.70
2023-05-24T08:27:06.155Z,44.25
2023-05-24T08:29:33.167Z,44.12
2023-05-24T08:32:00.889Z,43.32
2023-05-24T08:34:28.437Z,43.06
2023-05-24T08:36:55.178Z,43.07
2023-05-24T08:39:21.842Z,42.58
2023-05-24T08:42:00.966Z,42.70
2023-05-24T08:44:29.929Z,42.64
2023-05-24T08:46:58.364Z,42.64
2023-05-24T08:49:25.194Z,42.70
2023-05-24T08:51:52.145Z,42.87
2023-05-24T08:54:20.143Z,41.48
2023-05-24T08:56:48.236Z,41.10
2023-05-24T08:59:15.625Z,41.76
2023-05-24T09:01:43.080Z,40.82
2023-05-24T09:04:10.362Z,40.34
2023-05-24T09:06:37.575Z,40.65
2023-05-24T09:09:04.807Z,40.61
2023-05-24T09:11:32.021Z,40.17
2023-05-24T09:14:00.323Z,40.26
2023-05-24T09:16:27.468Z,40.24
2023-05-24T09:18:54.130Z,40.49
2023-05-24T09:21:20.865Z,39.91
2023-05-24T09:23:49.138Z,39.47
2023-05-24T09:26:15.889Z,39.72
2023-05-24T09:28:44.148Z,39.74
2023-05-24T09:31:12.228Z,39.94
2023-05-24T09:33:39.568Z,38.99
2023-05-24T09:36:07.070Z,39.09
2023-05-24T09:38:35.894Z,38.99
2023-05-24T09:41:04.834Z,38.56
2023-05-24T09:43:32.812Z,39.88
2023-05-24T09:46:00.570Z,38.80
2023-05-24T09:48:27.428Z,39.15
2023-05-24T09:51:05.188Z,39.24
2023-05-24T09:53:36.563Z,39.22
2023-05-24T09:56:05.272Z,38.61
2023-05-24T09:58:35.450Z,38.50
2023-05-24T10:01:07.785Z,38.91
2023-05-24T10:03:37.338Z,39.15
2023-05-24T10:06:07.460Z,38.64
2023-05-24T10:08:35.361Z,38.25
2023-05-24T10:11:05.745Z,38.96
2023-05-24T10:13:35.661Z,38.43
2023-05-24T10:16:05.359Z,39.62
2023-05-24T10:18:32.386Z,39.23
2023-05-24T10:21:02.067Z,38.45
2023-05-24T10:23:31.406Z,39.77
2023-05-24T10:26:07.243Z,39.55
2023-05-24T10:28:43.052Z,39.47
2023-05-24T10:31:12.940Z,39.47
2023-05-24T10:33:42.355Z,38.91
2023-05-24T10:36:11.729Z,39.49
2023-05-24T10:38:41.955Z,39.04
2023-05-24T10:41:08.954Z,38.54
2023-05-24T10:43:36.675Z,38.30
2023-05-24T10:46:04.779Z,38.60
2023-05-24T10:48:36.331Z,38.95
2023-05-24T10:51:36.423Z,38.73
2023-05-24T10:54:19.653Z,39.37
2023-05-24T10:56:50.837Z,39.61
2023-05-24T10:59:24.349Z,39.09
2023-05-24T11:01:58.525Z,39.41
2023-05-24T11:04:25.729Z,39.07
2023-05-24T11:06:58.049Z,38.95
2023-05-24T11:09:26.314Z,39.05
2023-05-24T11:11:59.925Z,38.09
2023-05-24T11:14:30.908Z,38.03
2023-05-24T11:17:00.214Z,37.22
2023-05-24T11:19:36.138Z,37.54
2023-05-24T11:22:08.189Z,37.26
2023-05-24T11:24:35.066Z,38.00
2023-05-24T11:27:06.080Z,37.54
2023-05-24T11:29:34.830Z,37.52
2023-05-24T11:32:04.544Z,39.05
2023-05-24T11:34:32.136Z,38.15
2023-05-24T11:37:00.361Z,38.14
2023-05-24T11:39:31.889Z,38.64
2023-05-24T11:41:59.531Z,38.33
2023-05-24T11:44:30.406Z,38.76
2023-05-24T11:47:01.652Z,38.90
2023-05-24T11:49:29.038Z,38.24
2023-05-24T11:51:57.028Z,38.49
2023-05-24T11:54:28.292Z,38.53
2023-05-24T11:56:55.645Z,39.06
2023-05-24T11:59:27.282Z,38.46
2023-05-24T12:02:00.078Z,39.08
2023-05-24T12:04:28.676Z,38.60
2023-05-24T12:06:55.575Z,38.41
2023-05-24T12:09:23.463Z,38.16
2023-05-24T12:11:51.662Z,37.77
2023-05-24T12:14:30.933Z,37.79
2023-05-24T12:16:58.076Z,37.65
2023-05-24T12:21:59.031Z,37.89
2023-05-24T12:24:26.967Z,37.46
2023-05-24T12:27:02.099Z,38.35
2023-05-24T12:29:36.331Z,38.00
2023-05-24T12:32:04.023Z,38.22
2023-05-24T12:34:30.781Z,37.93
2023-05-24T12:36:57.687Z,38.54
2023-05-24T12:39:35.465Z,37.91
2023-05-24T12:42:03.774Z,38.29
2023-05-24T12:44:37.712Z,38.82
2023-05-24T12:47:06.696Z,38.56
2023-05-24T12:49:34.541Z,38.18
2023-05-24T12:52:04.086Z,37.92
2023-05-24T12:54:31.176Z,38.46
2023-05-24T12:56:59.914Z,38.17
2023-05-24T12:59:28.236Z,37.00
2023-05-24T13:01:55.234Z,38.00
2023-05-24T13:04:24.241Z,38.57
2023-05-24T13:06:51.013Z,38.32
2023-05-24T13:09:22.952Z,38.06
2023-05-24T13:11:49.598Z,37.53
2023-05-24T13:14:16.867Z,36.90
2023-05-24T13:16:44.176Z,37.11
2023-05-24T13:19:11.666Z,37.32
2023-05-24T13:21:38.874Z,37.74
2023-05-24T13:24:06.515Z,38.32
2023-05-24T13:26:37.192Z,38.93
2023-05-24T13:31:37.329Z,37.48
2023-05-24T13:34:04.408Z,37.83
2023-05-24T13:36:31.029Z,38.42
2023-05-24T13:39:13.450Z,38.17
2023-05-24T13:41:42.191Z,39.24
2023-05-24T13:44:09.902Z,38.46
2023-05-24T13:46:37.098Z,38.71
2023-05-24T13:49:04.301Z,38.53
2023-05-24T13:51:30.973Z,38.71
2023-05-24T13:53:57.541Z,37.92
2023-05-24T13:56:24.862Z,37.45
2023-05-24T13:58:52.691Z,38.25
2023-05-24T14:01:19.900Z,37.39
2023-05-24T14:03:46.742Z,38.44
2023-05-24T14:06:13.593Z,39.01
2023-05-24T14:08:40.618Z,38.59
2023-05-24T14:11:07.227Z,38.39
2023-05-24T14:16:03.609Z,38.80
2023-05-24T14:18:30.426Z,38.39
2023-05-24T14:20:57.157Z,39.01
2023-05-24T14:23:23.724Z,40.27
2023-05-24T14:25:51.885Z,39.96
2023-05-24T14:28:19.328Z,38.95
2023-05-24T14:30:45.933Z,38.39
2023-05-24T14:33:13.361Z,38.54
2023-05-24T14:35:40.257Z,39.98
2023-05-24T14:38:08.749Z,39.33
2023-05-24T14:40:37.146Z,39.72
2023-05-24T14:43:05.147Z,39.52
2023-05-24T14:45:32.419Z,38.97
2023-05-24T14:48:00.826Z,38.67
2023-05-24T14:50:27.905Z,38.11
2023-05-24T14:52:55.736Z,38.48
2023-05-24T14:55:22.809Z,38.57
2023-05-24T14:57:49.663Z,38.38
2023-05-24T15:00:18.512Z,38.84
2023-05-24T15:02:46.565Z,38.58
2023-05-24T15:05:13.404Z,38.03
2023-05-24T15:07:40.004Z,38.11
2023-05-24T15:10:06.988Z,38.34
2023-05-24T15:12:33.752Z,38.03
2023-05-24T15:15:00.618Z,37.94
2023-05-24T15:17:27.684Z,37.42
2023-05-24T15:19:56.477Z,38.60
2023-05-24T15:22:23.209Z,38.56
2023-05-24T15:24:49.889Z,38.27
2023-05-24T15:27:17.303Z,37.81
2023-05-24T15:29:43.940Z,38.38
2023-05-24T15:32:10.625Z,39.65
2023-05-24T15:34:37.355Z,39.60
2023-05-24T15:37:04.108Z,38.97
2023-05-24T15:39:31.054Z,39.41
2023-05-24T15:41:57.714Z,40.42
2023-05-24T15:44:24.285Z,39.49
2023-05-24T15:46:50.947Z,39.48
2023-05-24T15:49:17.518Z,40.08
2023-05-24T15:52:01.654Z,40.26
2023-05-24T15:54:30.852Z,39.92
2023-05-24T15:56:57.581Z,39.77
2023-05-24T15:59:24.384Z,40.16
2023-05-24T16:01:51.313Z,40.06
2023-05-24T16:04:18.084Z,39.24
2023-05-24T16:06:44.725Z,39.77
2023-05-24T16:09:11.401Z,39.94
2023-05-24T16:11:38.104Z,39.52
2023-05-24T16:14:06.137Z,39.71
2023-05-24T16:16:32.771Z,40.24
2023-05-24T16:18:59.476Z,39.55
2023-05-24T16:21:28.180Z,38.45
2023-05-24T16:23:54.794Z,37.77
2023-05-24T16:26:21.323Z,37.94
2023-05-24T16:28:47.930Z,37.13
2023-05-24T16:31:15.957Z,38.52
2023-05-24T16:33:42.557Z,37.35
2023-05-24T16:36:09.220Z,36.89
2023-05-24T16:38:36.022Z,38.73
2023-05-24T16:41:02.688Z,38.66
2023-05-24T16:43:29.384Z,40.43
2023-05-24T16:45:56.015Z,40.94
2023-05-24T16:48:28.034Z,38.81
2023-05-24T16:50:56.603Z,39.53
2023-05-24T16:53:26.038Z,39.51
2023-05-24T16:55:54.189Z,39.58
2023-05-24T16:58:21.545Z,41.05
2023-05-24T17:00:48.722Z,40.30
2023-05-24T17:03:15.459Z,40.38
2023-05-24T17:05:42.604Z,40.95
2023-05-24T17:08:09.180Z,42.92
2023-05-24T17:10:35.751Z,42.67
2023-05-24T17:13:02.371Z,41.94
2023-05-24T17:15:28.961Z,40.95
2023-05-24T17:17:56.187Z,41.70
2023-05-24T17:20:23.036Z,42.87
2023-05-24T17:22:49.855Z,43.38
2023-05-24T17:25:16.492Z,44.77
2023-05-24T17:27:43.067Z,43.38
2023-05-24T17:30:09.874Z,43.83
2023-05-24T17:32:36.600Z,42.92
2023-05-24T17:35:03.724Z,42.44
2023-05-24T17:37:30.348Z,42.21
2023-05-24T17:39:57.026Z,42.17
2023-05-24T17:42:24.764Z,43.19
2023-05-24T17:44:51.424Z,43.19
2023-05-24T17:47:18.472Z,42.16
2023-05-24T17:49:45.149Z,42.12
2023-05-24T17:52:14.406Z,42.37
2023-05-24T17:54:41.175Z,42.88
2023-05-24T17:57:07.836Z,43.13
2023-05-24T17:59:34.407Z,42.43
2023-05-24T18:02:01.001Z,42.71
2023-05-24T18:04:27.624Z,42.60
2023-05-24T18:06:55.274Z,43.35
2023-05-24T18:09:22.020Z,43.23
2023-05-24T18:11:49.502Z,43.21
2023-05-24T18:14:16.272Z,43.65
2023-05-24T18:16:43.321Z,43.68
2023-05-24T18:19:09.967Z,44.30
2023-05-24T18:21:36.922Z,43.10
2023-05-24T18:24:03.629Z,42.64
2023-05-24T18:26:30.247Z,42.76
2023-05-24T18:28:56.767Z,43.00
2023-05-24T18:31:23.490Z,43.07
2023-05-24T18:33:50.646Z,41.95
2023-05-24T18:36:17.264Z,42.57
2023-05-24T18:38:47.060Z,42.64
2023-05-24T18:41:13.728Z,43.48
2023-05-24T18:43:41.987Z,42.69
2023-05-24T18:46:13.112Z,42.59
2023-05-24T18:48:41.263Z,44.17
2023-05-24T18:51:07.823Z,43.76
2023-05-24T18:53:35.778Z,43.33
2023-05-24T18:56:02.395Z,42.88
2023-05-24T18:58:29.981Z,42.57
2023-05-24T19:00:56.602Z,41.90
2023-05-24T19:03:24.611Z,42.19
2023-05-24T19:05:51.324Z,41.85
2023-05-24T19:08:18.407Z,42.00
2023-05-24T19:10:45.046Z,42.52
2023-05-24T19:13:11.688Z,42.95
2023-05-24T19:15:38.226Z,43.16
2023-05-24T19:18:05.999Z,43.14
2023-05-24T19:20:32.746Z,43.10
2023-05-24T19:22:59.428Z,43.80
2023-05-24T19:25:26.278Z,43.31
2023-05-24T19:27:59.225Z,43.40
2023-05-24T19:30:27.364Z,43.54
2023-05-24T19:32:54.172Z,44.38
2023-05-24T19:35:21.003Z,44.82
2023-05-24T19:37:47.601Z,44.42
2023-05-24T19:40:15.303Z,44.27
2023-05-24T19:42:41.946Z,45.03
2023-05-24T19:45:09.427Z,44.75
2023-05-24T19:47:36.064Z,45.08
2023-05-24T19:50:03.103Z,45.34
2023-05-24T19:52:29.668Z,45.11
2023-05-24T19:54:56.587Z,45.09
2023-05-24T19:57:23.158Z,44.40
2023-05-24T19:59:49.817Z,44.58
2023-05-24T20:02:16.464Z,44.51
2023-05-24T20:04:43.906Z,44.84
2023-05-24T20:07:10.951Z,45.05
2023-05-24T20:09:37.700Z,45.06
2023-05-24T20:12:04.588Z,45.54
2023-05-24T20:14:31.694Z,45.80
2023-05-24T20:16:59.233Z,45.82
2023-05-24T20:19:27.030Z,46.31
2023-05-24T20:21:53.923Z,47.19
2023-05-24T20:24:20.521Z,47.25
2023-05-24T20:26:47.120Z,47.90
2023-05-24T20:29:13.920Z,47.91
2023-05-24T20:31:41.312Z,48.24
2023-05-24T20:34:08.066Z,48.55
2023-05-24T20:36:34.596Z,48.14
2023-05-24T20:39:01.204Z,48.20
2023-05-24T20:41:30.329Z,47.89
2023-05-24T20:43:57.015Z,47.38
2023-05-24T20:46:23.745Z,47.37
2023-05-24T20:48:50.772Z,46.93
2023-05-24T20:51:18.742Z,47.06
2023-05-24T20:53:51.533Z,47.45
2023-05-24T20:56:18.388Z,47.11
2023-05-24T20:58:46.023Z,47.38
2023-05-24T21:01:12.702Z,46.96
2023-05-24T21:03:39.375Z,47.29
2023-05-24T21:06:06.109Z,47.43
2023-05-24T21:08:32.625Z,47.06
2023-05-24T21:10:59.337Z,47.39
2023-05-24T21:13:27.057Z,47.06
2023-05-24T21:15:53.959Z,46.74
2023-05-24T21:18:20.842Z,47.43
2023-05-24T21:20:47.582Z,47.18
2023-05-24T21:23:14.200Z,47.12
2023-05-24T21:25:40.926Z,47.83
2023-05-24T21:28:07.574Z,47.47
2023-05-24T21:30:34.216Z,47.97
2023-05-24T21:33:00.781Z,47.35
2023-05-24T21:35:27.879Z,47.03
2023-05-24T21:37:54.530Z,46.98
2023-05-24T21:40:21.204Z,46.64
2023-05-24T21:42:47.745Z,46.94
2023-05-24T21:45:14.366Z,48.03
2023-05-24T21:47:42.316Z,47.50
2023-05-24T21:50:09.501Z,47.48
2023-05-24T21:52:36.058Z,47.93
2023-05-24T21:55:02.682Z,47.71
2023-05-24T21:57:29.221Z,47.91
2023-05-24T21:59:55.832Z,48.62
2023-05-24T22:02:22.506Z,48.18
2023-05-24T22:04:49.243Z,48.01
2023-05-24T22:07:15.949Z,48.58
2023-05-24T22:09:42.604Z,48.25
2023-05-24T22:12:09.210Z,48.62
2023-05-24T22:14:35.919Z,48.41
2023-05-24T22:17:02.455Z,47.76
2023-05-24T22:19:39.916Z,48.35
2023-05-24T22:22:08.452Z,47.52
2023-05-24T22:24:35.124Z,48.68
2023-05-24T22:27:02.348Z,48.99
2023-05-24T22:29:28.998Z,49.07
2023-05-24T22:31:55.777Z,49.02
2023-05-24T22:34:28.928Z,49.35
2023-05-24T22:36:57.371Z,48.68
2023-05-24T22:39:24.542Z,48.59
2023-05-24T22:41:52.232Z,48.33
2023-05-24T22:44:19.380Z,49.00
2023-05-24T22:46:48.377Z,48.69
2023-05-24T22:49:19.531Z,49.00
2023-05-24T22:51:48.099Z,48.54
2023-05-24T22:54:15.625Z,48.76
2023-05-24T22:56:43.883Z,48.45
2023-05-24T22:59:11.086Z,48.56
2023-05-24T23:01:38.000Z,48.38
2023-05-24T23:04:11.943Z,48.17
2023-05-24T23:06:46.022Z,48.28
2023-05-24T23:09:13.023Z,48.61
2023-05-24T23:11:40.074Z,48.73
2023-05-24T23:14:08.641Z,48.21
2023-05-24T23:16:39.980Z,48.27
2023-05-24T23:19:06.906Z,48.05
2023-05-24T23:21:33.825Z,47.62
2023-05-24T23:24:03.798Z,47.92
2023-05-24T23:26:30.599Z,48.75
2023-05-24T23:28:57.225Z,48.17
2023-05-24T23:31:23.969Z,48.10
2023-05-24T23:33:50.759Z,47.94
2023-05-24T23:36:17.349Z,48.00
2023-05-24T23:38:44.082Z,47.77
2023-05-24T23:41:10.658Z,47.44
2023-05-24T23:43:37.351Z,47.78
2023-05-24T23:46:04.031Z,47.68
2023-05-24T23:48:30.554Z,48.12
2023-05-24T23:50:57.252Z,48.07
2023-05-24T23:53:23.858Z,47.98
2023-05-24T23:55:50.721Z,47.75
2023-05-24T23:58:17.311Z,47.68
